createdAt,value
2023-05-22T00:01:37.641Z,99764.02
2023-05-22T00:05:35.610Z,99761.86
2023-05-22T00:09:53.574Z,99754.33
2023-05-22T00:13:51.555Z,99754.26
2023-05-22T00:17:49.635Z,99750.71
2023-05-22T00:21:48.611Z,99746.08
2023-05-22T00:25:46.684Z,99740.32
2023-05-22T00:29:44.523Z,99745.50
2023-05-22T00:33:42.555Z,99739.49
2023-05-22T00:38:05.541Z,99738.30
2023-05-22T00:42:03.556Z,99740.77
2023-05-22T00:46:01.531Z,99743.20
2023-05-22T00:50:00.556Z,99749.46
2023-05-22T00:53:58.588Z,99745.16
2023-05-22T00:57:56.579Z,99749.83
2023-05-22T01:01:54.563Z,99748.21
2023-05-22T01:05:53.533Z,99745.79
2023-05-22T01:09:51.514Z,99745.80
2023-05-22T01:14:17.519Z,99735.33
2023-05-22T01:18:38.491Z,99737.73
2023-05-22T01:22:50.515Z,99739.25
2023-05-22T01:27:24.524Z,99737.51
2023-05-22T01:31:31.534Z,99739.12
2023-05-22T01:35:31.479Z,99737.16
2023-05-22T01:39:30.468Z,99733.70
2023-05-22T01:43:29.532Z,99739.31
2023-05-22T01:47:27.483Z,99740.41
2023-05-22T01:51:46.473Z,99738.16
2023-05-22T01:56:07.492Z,99742.33
2023-05-22T02:00:18.466Z,99744.41
2023-05-22T02:04:16.458Z,99749.20
2023-05-22T02:08:15.447Z,99747.55
2023-05-22T02:12:14.474Z,99741.34
2023-05-22T02:16:12.557Z,99740.75
2023-05-22T02:20:11.469Z,99741.63
2023-05-22T02:24:09.440Z,99739.95
2023-05-22T02:28:07.466Z,99744.14
2023-05-22T02:32:05.402Z,99743.66
2023-05-22T02:36:03.508Z,99746.41
2023-05-22T02:40:01.402Z,99750.48
2023-05-22T02:43:59.442Z,99752.11
2023-05-22T02:47:57.484Z,99753.29
2023-05-22T02:51:56.378Z,99753.40
2023-05-22T02:55:55.375Z,99754.16
2023-05-22T02:59:53.397Z,99752.27
2023-05-22T03:03:51.418Z,99752.95
2023-05-22T03:07:49.394Z,99756.17
2023-05-22T03:11:47.358Z,99752.27
2023-05-22T03:15:45.377Z,99756.69
2023-05-22T03:19:43.391Z,99753.50
2023-05-22T03:23:41.342Z,99753.75
2023-05-22T03:27:39.415Z,99751.64
2023-05-22T03:31:39.377Z,99740.99
2023-05-22T03:35:38.376Z,99745.11
2023-05-22T03:39:36.425Z,99740.93
2023-05-22T03:43:50.320Z,99738.38
2023-05-22T03:47:48.399Z,99747.27
2023-05-22T03:51:46.311Z,99745.98
2023-05-22T03:55:44.362Z,99736.61
2023-05-22T03:59:43.368Z,99735.45
2023-05-22T04:03:41.390Z,99734.60
2023-05-22T04:07:42.314Z,99734.58
2023-05-22T04:11:40.349Z,99734.26
2023-05-22T04:15:40.321Z,99738.44
2023-05-22T04:19:38.354Z,99740.73
2023-05-22T04:23:36.280Z,99731.20
2023-05-22T04:27:36.348Z,99724.96
2023-05-22T04:31:34.387Z,99722.83
2023-05-22T04:35:32.332Z,99719.08
2023-05-22T04:39:32.261Z,99710.95
2023-05-22T04:43:33.261Z,99713.59
2023-05-22T04:47:31.286Z,99715.04
2023-05-22T04:51:30.310Z,99712.09
2023-05-22T04:55:29.247Z,99708.44
2023-05-22T04:59:30.280Z,99710.02
2023-05-22T05:03:28.303Z,99704.40
2023-05-22T05:07:26.312Z,99703.56
2023-05-22T05:11:24.269Z,99704.09
2023-05-22T05:15:23.313Z,99711.10
2023-05-22T05:19:22.401Z,99709.59
2023-05-22T05:23:20.313Z,99709.45
2023-05-22T05:27:18.191Z,99713.31
2023-05-22T05:31:16.243Z,99707.30
2023-05-22T05:35:34.225Z,99706.29
2023-05-22T05:39:34.265Z,99704.97
2023-05-22T05:43:33.267Z,99708.30
2023-05-22T05:47:33.261Z,99703.60
2023-05-22T05:51:11.109Z,99700.48
2023-05-22T05:54:38.814Z,99701.08
2023-05-22T05:58:10.299Z,99708.19
2023-05-22T06:01:39.939Z,99712.03
2023-05-22T06:05:09.012Z,99713.05
2023-05-22T06:08:34.767Z,99714.00
2023-05-22T06:11:59.000Z,99713.61
2023-05-22T06:15:22.964Z,99716.34
2023-05-22T06:18:47.475Z,99717.77
2023-05-22T06:22:12.098Z,99717.16
2023-05-22T06:25:39.740Z,99717.21
2023-05-22T06:29:04.097Z,99716.44
2023-05-22T06:32:29.525Z,99713.45
2023-05-22T06:35:53.781Z,99709.45
2023-05-22T06:39:22.280Z,99710.81
2023-05-22T06:43:03.903Z,99711.95
2023-05-22T06:46:38.363Z,99710.16
2023-05-22T06:50:03.062Z,99711.45
2023-05-22T06:53:27.292Z,99708.64
2023-05-22T06:56:51.864Z,99702.15
2023-05-22T07:03:52.628Z,99706.33
2023-05-22T07:07:29.731Z,99701.79
2023-05-22T07:10:53.900Z,99705.13
2023-05-22T07:14:18.214Z,99706.01
2023-05-22T07:17:43.289Z,99703.86
2023-05-22T07:21:07.534Z,99699.77
2023-05-22T07:24:32.274Z,99701.63
2023-05-22T07:27:58.458Z,99700.21
2023-05-22T07:31:22.689Z,99698.79
2023-05-22T07:34:53.358Z,99699.83
2023-05-22T07:38:17.317Z,99699.92
2023-05-22T07:41:50.381Z,99696.48
2023-05-22T07:45:15.010Z,99691.95
2023-05-22T07:48:39.180Z,99697.63
2023-05-22T07:52:03.858Z,99699.60
2023-05-22T07:55:27.849Z,99696.13
2023-05-22T07:58:52.790Z,99692.42
2023-05-22T08:02:18.935Z,99691.07
2023-05-22T08:05:43.221Z,99693.98
2023-05-22T08:09:07.119Z,99693.20
2023-05-22T08:12:31.280Z,99688.63
2023-05-22T08:16:00.711Z,99688.89
2023-05-22T08:19:25.329Z,99687.22
2023-05-22T08:22:49.519Z,99690.40
2023-05-22T08:26:13.747Z,99684.44
2023-05-22T08:29:37.606Z,99687.23
2023-05-22T08:33:01.583Z,99688.14
2023-05-22T08:36:25.516Z,99688.99
2023-05-22T08:39:49.453Z,99683.86
2023-05-22T08:43:13.432Z,99679.00
2023-05-22T08:46:41.686Z,99672.46
2023-05-22T08:50:06.066Z,99675.22
2023-05-22T08:53:32.125Z,99675.19
2023-05-22T08:56:57.679Z,99669.30
2023-05-22T09:00:22.659Z,99665.80
2023-05-22T09:03:49.379Z,99663.30
2023-05-22T09:07:14.638Z,99663.42
2023-05-22T09:10:38.661Z,99654.60
2023-05-22T09:14:09.678Z,99644.23
2023-05-22T09:17:33.643Z,99645.55
2023-05-22T09:21:04.965Z,99645.55
2023-05-22T09:24:31.134Z,99636.14
2023-05-22T09:27:55.027Z,99636.73
2023-05-22T09:31:18.881Z,99634.58
2023-05-22T09:34:43.070Z,99630.27
2023-05-22T09:38:07.401Z,99635.32
2023-05-22T09:41:36.239Z,99624.75
2023-05-22T09:45:07.519Z,99625.79
2023-05-22T09:48:40.283Z,99624.77
2023-05-22T09:52:07.390Z,99628.91
2023-05-22T09:55:32.338Z,99624.70
2023-05-22T09:58:56.236Z,99616.80
2023-05-22T10:02:23.618Z,99618.04
2023-05-22T10:05:51.303Z,99611.92
2023-05-22T10:09:19.624Z,99613.77
2023-05-22T10:12:46.642Z,99611.05
2023-05-22T10:16:12.204Z,99610.61
2023-05-22T10:19:39.439Z,99605.38
2023-05-22T10:23:07.114Z,99611.37
2023-05-22T10:26:31.414Z,99606.67
2023-05-22T10:30:07.201Z,99607.51
2023-05-22T10:33:39.960Z,99603.56
2023-05-22T10:37:22.198Z,99597.23
2023-05-22T10:40:47.559Z,99592.67
2023-05-22T10:44:11.588Z,99587.90
2023-05-22T10:47:35.751Z,99577.77
2023-05-22T10:51:00.782Z,99585.96
2023-05-22T10:55:01.289Z,99588.45
2023-05-22T10:58:32.142Z,99582.65
2023-05-22T11:02:02.216Z,99586.13
2023-05-22T11:05:34.564Z,99588.80
2023-05-22T11:08:58.819Z,99580.02
2023-05-22T11:12:31.227Z,99576.96
2023-05-22T11:15:57.850Z,99570.30
2023-05-22T11:19:24.116Z,99572.98
2023-05-22T11:22:57.151Z,99569.84
2023-05-22T11:26:25.590Z,99574.80
2023-05-22T11:29:52.098Z,99573.75
2023-05-22T11:33:16.084Z,99573.31
2023-05-22T11:36:40.069Z,99575.23
2023-05-22T11:40:06.652Z,99564.56
2023-05-22T11:43:33.293Z,99564.48
2023-05-22T11:46:57.265Z,99560.89
2023-05-22T11:50:33.587Z,99562.23
2023-05-22T11:54:06.317Z,99569.31
2023-05-22T11:57:31.548Z,99567.85
2023-05-22T12:01:02.740Z,99569.20
2023-05-22T12:04:26.660Z,99568.47
2023-05-22T12:07:51.111Z,99564.80
2023-05-22T12:11:15.329Z,99562.48
2023-05-22T12:14:39.665Z,99562.70
2023-05-22T12:18:03.474Z,99558.56
2023-05-22T12:21:28.088Z,99555.73
2023-05-22T12:24:53.484Z,99554.93
2023-05-22T12:28:17.378Z,99549.21
2023-05-22T12:31:41.351Z,99548.62
2023-05-22T12:35:05.551Z,99542.01
2023-05-22T12:38:34.038Z,99541.17
2023-05-22T12:41:59.278Z,99537.55
2023-05-22T12:45:23.197Z,99537.52
2023-05-22T12:48:47.242Z,99540.05
2023-05-22T12:52:11.078Z,99534.20
2023-05-22T12:55:35.582Z,99528.63
2023-05-22T12:59:00.157Z,99523.87
2023-05-22T13:02:24.425Z,99520.17
2023-05-22T13:05:48.634Z,99520.38
2023-05-22T13:09:16.965Z,99519.95
2023-05-22T13:12:41.888Z,99513.59
2023-05-22T13:16:06.119Z,99514.56
2023-05-22T13:19:30.022Z,99511.05
2023-05-22T13:22:53.997Z,99509.77
2023-05-22T13:26:18.031Z,99504.52
2023-05-22T13:29:41.903Z,99503.88
2023-05-22T13:33:25.817Z,99504.80
2023-05-22T13:37:23.925Z,99505.58
2023-05-22T13:41:23.805Z,99501.23
2023-05-22T13:45:21.897Z,99496.13
2023-05-22T13:49:19.781Z,99495.16
2023-05-22T13:53:24.839Z,99490.80
2023-05-22T13:57:22.777Z,99492.94
2023-05-22T14:01:20.845Z,99488.77
2023-05-22T14:05:18.798Z,99482.66
2023-05-22T14:09:16.774Z,99485.05
2023-05-22T14:13:14.777Z,99480.81
2023-05-22T14:17:12.937Z,99482.86
2023-05-22T14:21:10.775Z,99474.78
2023-05-22T14:25:08.767Z,99471.35
2023-05-22T14:29:06.767Z,99469.87
2023-05-22T14:33:04.869Z,99468.95
2023-05-22T14:37:02.814Z,99460.77
2023-05-22T14:41:00.807Z,99456.12
2023-05-22T14:44:58.748Z,99452.61
2023-05-22T14:48:56.722Z,99450.92
2023-05-22T14:52:54.748Z,99445.72
2023-05-22T14:56:52.769Z,99443.66
2023-05-22T15:00:50.902Z,99450.50
2023-05-22T15:04:48.829Z,99447.92
2023-05-22T15:08:46.734Z,99446.27
2023-05-22T15:12:44.736Z,99437.09
2023-05-22T15:16:42.828Z,99428.87
2023-05-22T15:20:41.748Z,99428.09
2023-05-22T15:24:39.675Z,99422.99
2023-05-22T15:28:37.813Z,99420.55
2023-05-22T15:32:36.699Z,99420.11
2023-05-22T15:36:34.787Z,99414.91
2023-05-22T15:40:32.696Z,99420.90
2023-05-22T15:44:30.775Z,99420.36
2023-05-22T15:48:28.709Z,99411.02
2023-05-22T15:52:27.777Z,99410.95
2023-05-22T15:56:25.703Z,99403.83
2023-05-22T16:00:23.690Z,99400.54
2023-05-22T16:04:21.690Z,99398.30
2023-05-22T16:08:20.700Z,99398.33
2023-05-22T16:12:18.661Z,99398.27
2023-05-22T16:16:16.705Z,99388.77
2023-05-22T16:20:14.664Z,99389.92
2023-05-22T16:24:13.724Z,99386.11
2023-05-22T16:28:11.716Z,99384.90
2023-05-22T16:32:10.689Z,99379.23
2023-05-22T16:36:08.642Z,99383.13
2023-05-22T16:40:06.686Z,99382.29
2023-05-22T16:44:04.653Z,99383.63
2023-05-22T16:48:02.767Z,99378.40
2023-05-22T16:52:00.712Z,99378.52
2023-05-22T16:55:58.666Z,99383.25
2023-05-22T16:59:57.892Z,99384.11
2023-05-22T17:03:55.714Z,99382.77
2023-05-22T17:07:53.630Z,99382.50
2023-05-22T17:11:51.638Z,99384.92
2023-05-22T17:15:49.752Z,99389.63
2023-05-22T17:19:47.646Z,99391.73
2023-05-22T17:23:45.639Z,99391.27
2023-05-22T17:27:43.765Z,99389.69
2023-05-22T17:31:41.658Z,99393.10
2023-05-22T17:35:39.599Z,99390.64
2023-05-22T17:39:37.612Z,99390.19
2023-05-22T17:43:35.579Z,99389.88
2023-05-22T17:47:33.648Z,99385.52
2023-05-22T17:51:31.607Z,99385.79
2023-05-22T17:55:29.621Z,99384.92
2023-05-22T17:59:27.665Z,99386.77
2023-05-22T18:03:26.682Z,99384.30
2023-05-22T18:07:25.612Z,99386.80
2023-05-22T18:11:23.560Z,99387.25
2023-05-22T18:15:21.588Z,99386.46
2023-05-22T18:19:19.694Z,99386.75
2023-05-22T18:23:17.579Z,99385.30
2023-05-22T18:27:15.558Z,99383.83
2023-05-22T18:31:14.652Z,99379.07
2023-05-22T18:35:12.544Z,99383.12
2023-05-22T18:39:10.554Z,99388.77
2023-05-22T18:43:08.560Z,99388.63
2023-05-22T18:47:06.660Z,99388.41
2023-05-22T18:51:04.556Z,99392.05
2023-05-22T18:55:02.626Z,99389.73
2023-05-22T18:59:01.517Z,99391.36
2023-05-22T19:02:59.598Z,99397.12
2023-05-22T19:07:00.513Z,99395.58
2023-05-22T19:10:58.572Z,99402.72
2023-05-22T19:14:56.501Z,99394.09
2023-05-22T19:18:55.556Z,99392.86
2023-05-22T19:22:53.504Z,99396.55
2023-05-22T19:26:51.537Z,99399.64
2023-05-22T19:30:50.575Z,99401.56
2023-05-22T19:34:48.498Z,99404.03
2023-05-22T19:38:47.463Z,99403.58
2023-05-22T19:42:46.530Z,99398.77
2023-05-22T19:46:44.518Z,99397.30
2023-05-22T19:50:42.767Z,99402.77
2023-05-22T19:54:40.536Z,99405.80
2023-05-22T19:58:38.517Z,99401.48
2023-05-22T20:02:36.612Z,99398.42
2023-05-22T20:06:37.507Z,99397.40
2023-05-22T20:10:35.431Z,99395.59
2023-05-22T20:14:33.472Z,99392.66
2023-05-22T20:18:31.471Z,99392.34
2023-05-22T20:22:29.444Z,99388.61
2023-05-22T20:26:28.399Z,99388.18
2023-05-22T20:30:26.465Z,99387.88
2023-05-22T20:34:24.455Z,99387.15
2023-05-22T20:38:22.484Z,99384.46
2023-05-22T20:42:21.405Z,99382.70
2023-05-22T20:46:20.422Z,99384.57
2023-05-22T20:50:18.465Z,99385.98
2023-05-22T20:54:16.465Z,99378.52
2023-05-22T20:58:14.364Z,99379.05
2023-05-22T21:02:12.485Z,99378.53
2023-05-22T21:06:10.383Z,99378.92
2023-05-22T21:10:08.398Z,99378.30
2023-05-22T21:14:06.387Z,99374.86
2023-05-22T21:18:04.417Z,99377.15
2023-05-22T21:22:02.382Z,99377.34
2023-05-22T21:26:00.385Z,99377.54
2023-05-22T21:29:58.420Z,99379.08
2023-05-22T21:33:56.443Z,99384.38
2023-05-22T21:37:54.426Z,99377.05
2023-05-22T21:41:52.414Z,99375.98
2023-05-22T21:45:50.344Z,99369.55
2023-05-22T21:49:48.384Z,99374.63
2023-05-22T21:53:46.384Z,99374.30
2023-05-22T21:57:44.372Z,99366.16
2023-05-22T22:01:42.353Z,99371.86
2023-05-22T22:05:40.425Z,99365.70
2023-05-22T22:09:38.328Z,99365.00
2023-05-22T22:13:36.349Z,99363.92
2023-05-22T22:17:34.322Z,99360.34
2023-05-22T22:21:32.304Z,99361.55
2023-05-22T22:25:30.323Z,99360.17
2023-05-22T22:29:28.330Z,99359.45
2023-05-22T22:33:26.276Z,99355.30
2023-05-22T22:37:24.324Z,99348.58
2023-05-22T22:41:22.283Z,99346.45
2023-05-22T22:45:40.528Z,99346.86
2023-05-22T22:49:38.305Z,99348.13
2023-05-22T22:53:36.314Z,99345.91
2023-05-22T22:57:34.276Z,99346.14
2023-05-22T23:01:32.303Z,99343.08
2023-05-22T23:05:30.325Z,99337.48
2023-05-22T23:09:28.305Z,99333.48
2023-05-22T23:13:26.290Z,99332.95
2023-05-22T23:17:24.277Z,99335.72
2023-05-22T23:21:22.250Z,99332.89
2023-05-22T23:25:20.256Z,99332.55
2023-05-22T23:29:18.227Z,99330.11
2023-05-22T23:33:16.246Z,99327.13
2023-05-22T23:37:14.241Z,99325.81
2023-05-22T23:41:12.257Z,99327.11
2023-05-22T23:45:10.196Z,99325.23
2023-05-22T23:49:08.225Z,99326.05
2023-05-22T23:53:06.224Z,99327.51
2023-05-22T23:57:04.254Z,99325.30
